createdAt,value
2023-03-03T00:00:02.476Z,91.4
2023-03-03T00:01:00.534Z,91.4
2023-03-03T00:02:00.569Z,85.6
2023-03-03T00:03:05.032Z,85.6
2023-03-03T00:04:00.528Z,85.6
2023-03-03T00:05:00.666Z,85.6
2023-03-03T00:06:01.873Z,85.6
2023-03-03T00:07:00.531Z,85.3
2023-03-03T00:08:01.487Z,85.3
2023-03-03T00:09:00.631Z,85.3
2023-03-03T00:10:00.529Z,85.3
2023-03-03T00:11:00.563Z,85.3
2023-03-03T00:12:10.618Z,87.0
2023-03-03T00:13:00.553Z,87.0
2023-03-03T00:14:00.663Z,87.0
2023-03-03T00:15:00.564Z,87.0
2023-03-03T00:16:12.446Z,87.0
2023-03-03T00:17:14.024Z,97.1
2023-03-03T00:18:00.644Z,97.1
2023-03-03T00:19:00.646Z,97.1
2023-03-03T00:20:02.274Z,97.1
2023-03-03T00:21:02.069Z,97.1
2023-03-03T00:22:00.518Z,79.5
2023-03-03T00:23:10.467Z,79.5
2023-03-03T00:24:10.505Z,79.5
2023-03-03T00:25:20.455Z,79.5
2023-03-03T00:26:01.150Z,79.5
2023-03-03T00:27:12.232Z,78.5
2023-03-03T00:28:09.066Z,78.5
2023-03-03T00:29:00.527Z,78.5
2023-03-03T00:30:00.954Z,78.5
2023-03-03T00:31:01.296Z,78.5
2023-03-03T00:32:11.534Z,86.2
2023-03-03T00:33:00.512Z,86.2
2023-03-03T00:34:19.814Z,86.2
2023-03-03T00:35:20.466Z,86.2
2023-03-03T00:36:13.790Z,86.2
2023-03-03T00:37:00.525Z,78.4
2023-03-03T00:38:10.142Z,78.4
2023-03-03T00:39:10.468Z,78.4
2023-03-03T00:40:17.557Z,78.4
2023-03-03T00:41:00.517Z,78.4
2023-03-03T00:42:01.315Z,70.5
2023-03-03T00:43:01.413Z,70.5
2023-03-03T00:44:20.418Z,70.5
2023-03-03T00:45:00.883Z,70.5
2023-03-03T00:46:01.222Z,70.5
2023-03-03T00:47:17.070Z,71.0
2023-03-03T00:48:15.048Z,71.0
2023-03-03T00:49:01.722Z,71.0
2023-03-03T00:50:10.443Z,71.0
2023-03-03T00:51:09.888Z,71.0
2023-03-03T00:52:00.557Z,70.6
2023-03-03T00:53:03.179Z,70.6
2023-03-03T00:54:00.661Z,70.6
2023-03-03T00:55:00.580Z,70.6
2023-03-03T00:56:00.499Z,70.6
2023-03-03T00:57:00.523Z,62.1
2023-03-03T00:58:01.042Z,62.1
2023-03-03T00:59:00.557Z,62.1
2023-03-03T01:00:00.626Z,62.1
2023-03-03T01:01:00.515Z,62.1
2023-03-03T01:02:00.578Z,67.5
2023-03-03T01:03:03.935Z,67.5
2023-03-03T01:04:00.561Z,67.5
2023-03-03T01:05:00.576Z,67.5
2023-03-03T01:06:00.532Z,67.5
2023-03-03T01:07:00.718Z,60.2
2023-03-03T01:08:01.744Z,60.2
2023-03-03T01:09:00.535Z,60.2
2023-03-03T01:10:00.534Z,60.2
2023-03-03T01:11:08.341Z,60.2
2023-03-03T01:12:00.645Z,65.3
2023-03-03T01:13:01.064Z,65.3
2023-03-03T01:14:00.623Z,65.3
2023-03-03T01:15:01.000Z,65.3
2023-03-03T01:16:01.955Z,65.3
2023-03-03T01:17:00.640Z,56.1
2023-03-03T01:18:00.718Z,56.1
2023-03-03T01:19:00.588Z,56.1
2023-03-03T01:20:01.018Z,56.1
2023-03-03T01:21:00.560Z,56.1
2023-03-03T01:22:00.693Z,58.1
2023-03-03T01:23:00.571Z,58.1
2023-03-03T01:24:00.588Z,58.1
2023-03-03T01:25:00.628Z,58.1
2023-03-03T01:26:00.932Z,58.1
2023-03-03T01:27:00.527Z,53.1
2023-03-03T01:28:00.681Z,53.1
2023-03-03T01:29:00.536Z,53.1
2023-03-03T01:30:01.231Z,53.1
2023-03-03T01:31:02.215Z,53.1
2023-03-03T01:32:00.571Z,53.6
2023-03-03T01:33:00.783Z,53.6
2023-03-03T01:34:00.688Z,53.6
2023-03-03T01:35:00.537Z,53.6
2023-03-03T01:36:00.665Z,53.6
2023-03-03T01:37:00.560Z,56.5
2023-03-03T01:38:00.821Z,56.5
2023-03-03T01:39:00.549Z,56.5
2023-03-03T01:40:01.215Z,56.5
2023-03-03T01:41:01.854Z,56.5
2023-03-03T01:42:03.066Z,55.1
2023-03-03T01:43:00.713Z,55.1
2023-03-03T01:44:01.216Z,55.1
2023-03-03T01:45:13.342Z,55.1
2023-03-03T01:46:00.500Z,55.1
2023-03-03T01:47:09.505Z,56.3
2023-03-03T01:48:05.318Z,56.3
2023-03-03T01:49:06.470Z,56.3
2023-03-03T01:50:08.681Z,56.3
2023-03-03T01:51:04.887Z,56.3
2023-03-03T01:52:09.031Z,58.6
2023-03-03T01:53:05.342Z,58.6
2023-03-03T01:54:04.427Z,58.6
2023-03-03T01:55:05.551Z,58.6
2023-03-03T01:56:04.018Z,58.6
2023-03-03T01:57:05.649Z,59.5
2023-03-03T01:58:07.786Z,59.5
2023-03-03T01:59:04.456Z,59.5
2023-03-03T02:00:02.747Z,59.5
2023-03-03T02:01:06.223Z,59.5
2023-03-03T02:02:00.715Z,55.9
2023-03-03T02:03:00.927Z,55.9
2023-03-03T02:04:00.673Z,55.9
2023-03-03T02:05:00.624Z,55.9
2023-03-03T02:06:06.636Z,55.9
2023-03-03T02:07:05.434Z,58.3
2023-03-03T02:08:01.170Z,58.3
2023-03-03T02:09:10.458Z,58.3
2023-03-03T02:10:08.266Z,58.3
2023-03-03T02:11:02.413Z,58.3
2023-03-03T02:12:04.516Z,52.2
2023-03-03T02:13:00.736Z,52.2
2023-03-03T02:14:00.611Z,52.2
2023-03-03T02:15:00.968Z,52.2
2023-03-03T02:16:00.882Z,52.2
2023-03-03T02:17:00.591Z,53.9
2023-03-03T02:18:04.631Z,53.9
2023-03-03T02:19:00.573Z,53.9
2023-03-03T02:20:15.214Z,53.9
2023-03-03T02:21:14.100Z,53.9
2023-03-03T02:22:01.286Z,53.0
2023-03-03T02:23:04.788Z,53.0
2023-03-03T02:24:20.460Z,53.0
2023-03-03T02:25:04.072Z,53.0
2023-03-03T02:26:06.851Z,53.0
2023-03-03T02:27:00.630Z,47.3
2023-03-03T02:28:01.455Z,47.3
2023-03-03T02:29:00.539Z,47.3
2023-03-03T02:30:12.837Z,47.3
2023-03-03T02:31:01.360Z,47.3
2023-03-03T02:32:00.753Z,51.1
2023-03-03T02:33:00.525Z,51.1
2023-03-03T02:34:00.640Z,51.1
2023-03-03T02:35:00.599Z,51.1
2023-03-03T02:36:00.671Z,51.1
2023-03-03T02:37:02.772Z,53.0
2023-03-03T02:38:07.817Z,53.0
2023-03-03T02:39:20.433Z,53.0
2023-03-03T02:40:01.448Z,53.0
2023-03-03T02:41:17.316Z,55.5
2023-03-03T02:42:06.921Z,55.5
2023-03-03T02:43:03.036Z,55.5
2023-03-03T02:44:10.316Z,55.5
2023-03-03T02:45:00.535Z,55.5
2023-03-03T02:46:00.563Z,55.5
2023-03-03T02:47:01.089Z,51.6
2023-03-03T02:48:00.517Z,51.6
2023-03-03T02:49:01.562Z,51.6
2023-03-03T02:50:00.539Z,51.6
2023-03-03T02:51:00.548Z,51.6
2023-03-03T02:52:02.575Z,54.8
2023-03-03T02:53:00.526Z,54.8
2023-03-03T02:54:00.855Z,54.8
2023-03-03T02:55:00.530Z,54.8
2023-03-03T02:56:00.580Z,54.8
2023-03-03T02:57:01.053Z,55.6
2023-03-03T02:58:00.539Z,55.6
2023-03-03T02:59:00.611Z,55.6
2023-03-03T03:00:00.540Z,55.6
2023-03-03T03:01:00.784Z,55.6
2023-03-03T03:02:00.558Z,52.1
2023-03-03T03:03:00.525Z,52.1
2023-03-03T03:04:00.599Z,52.1
2023-03-03T03:05:00.541Z,52.1
2023-03-03T03:06:00.564Z,52.1
2023-03-03T03:07:00.521Z,62.4
2023-03-03T03:08:00.513Z,62.4
2023-03-03T03:09:00.534Z,62.4
2023-03-03T03:10:00.557Z,62.4
2023-03-03T03:11:00.684Z,62.4
2023-03-03T03:12:00.506Z,62.1
2023-03-03T03:13:00.511Z,62.1
2023-03-03T03:14:01.108Z,62.1
2023-03-03T03:15:00.539Z,62.1
2023-03-03T03:16:01.076Z,62.1
2023-03-03T03:17:00.508Z,59.5
2023-03-03T03:18:00.565Z,59.5
2023-03-03T03:19:01.324Z,59.5
2023-03-03T03:20:00.536Z,59.5
2023-03-03T03:21:10.079Z,49.5
2023-03-03T03:22:00.516Z,49.5
2023-03-03T03:23:00.510Z,49.5
2023-03-03T03:24:00.558Z,49.5
2023-03-03T03:25:00.512Z,49.5
2023-03-03T03:26:00.798Z,49.5
2023-03-03T03:27:00.552Z,50.9
2023-03-03T03:28:01.020Z,50.9
2023-03-03T03:29:00.592Z,50.9
2023-03-03T03:30:00.589Z,50.9
2023-03-03T03:31:01.667Z,55.8
2023-03-03T03:32:00.614Z,55.8
2023-03-03T03:33:00.649Z,55.8
2023-03-03T03:34:00.553Z,55.8
2023-03-03T03:35:00.969Z,55.8
2023-03-03T03:36:00.885Z,52.4
2023-03-03T03:37:00.565Z,52.4
2023-03-03T03:38:00.636Z,52.4
2023-03-03T03:39:00.559Z,52.4
2023-03-03T03:40:00.540Z,52.4
2023-03-03T03:41:00.509Z,50.5
2023-03-03T03:42:00.550Z,50.5
2023-03-03T03:43:00.538Z,50.5
2023-03-03T03:44:00.527Z,50.5
2023-03-03T03:45:00.648Z,50.5
2023-03-03T03:46:00.702Z,53.8
2023-03-03T03:47:00.558Z,53.8
2023-03-03T03:48:00.601Z,53.8
2023-03-03T03:49:00.549Z,53.8
2023-03-03T03:50:00.525Z,53.8
2023-03-03T03:51:00.937Z,50.8
2023-03-03T03:52:00.585Z,50.8
2023-03-03T03:53:00.571Z,50.8
2023-03-03T03:54:00.705Z,50.8
2023-03-03T03:55:00.739Z,50.8
2023-03-03T03:56:00.552Z,51.4
2023-03-03T03:57:01.387Z,51.4
2023-03-03T03:58:00.558Z,51.4
2023-03-03T03:59:00.558Z,51.4
2023-03-03T04:00:00.525Z,51.4
2023-03-03T04:01:01.518Z,50.3
2023-03-03T04:02:00.567Z,50.3
2023-03-03T04:03:00.702Z,50.3
2023-03-03T04:04:00.571Z,50.3
2023-03-03T04:05:00.604Z,50.3
2023-03-03T04:06:00.554Z,54.8
2023-03-03T04:07:00.579Z,54.8
2023-03-03T04:08:00.754Z,54.8
2023-03-03T04:09:00.597Z,54.8
2023-03-03T04:10:00.559Z,54.8
2023-03-03T04:11:00.606Z,52.0
2023-03-03T04:12:00.596Z,52.0
2023-03-03T04:13:00.520Z,52.0
2023-03-03T04:14:00.575Z,52.0
2023-03-03T04:15:00.562Z,52.0
2023-03-03T04:16:01.109Z,58.0
2023-03-03T04:17:00.586Z,58.0
2023-03-03T04:18:00.630Z,58.0
2023-03-03T04:19:00.564Z,58.0
2023-03-03T04:20:00.626Z,58.0
2023-03-03T04:21:00.566Z,56.7
2023-03-03T04:22:00.564Z,56.7
2023-03-03T04:23:00.528Z,56.7
2023-03-03T04:24:00.677Z,56.7
2023-03-03T04:25:03.135Z,56.7
2023-03-03T04:26:00.557Z,53.7
2023-03-03T04:27:00.551Z,53.7
2023-03-03T04:28:00.553Z,53.7
2023-03-03T04:29:00.529Z,53.7
2023-03-03T04:30:01.745Z,53.7
2023-03-03T04:31:00.644Z,46.3
2023-03-03T04:32:00.886Z,46.3
2023-03-03T04:33:00.542Z,46.3
2023-03-03T04:34:00.573Z,46.3
2023-03-03T04:35:07.517Z,46.3
2023-03-03T04:36:00.745Z,41.8
2023-03-03T04:37:00.599Z,41.8
2023-03-03T04:38:00.525Z,41.8
2023-03-03T04:39:00.544Z,41.8
2023-03-03T04:40:00.672Z,41.8
2023-03-03T04:41:00.581Z,34.8
2023-03-03T04:42:00.622Z,34.8
2023-03-03T04:43:00.583Z,34.8
2023-03-03T04:44:00.594Z,34.8
2023-03-03T04:45:00.585Z,34.8
2023-03-03T04:46:00.689Z,36.3
2023-03-03T04:47:00.560Z,36.3
2023-03-03T04:48:00.598Z,36.3
2023-03-03T04:49:00.630Z,36.3
2023-03-03T04:50:00.624Z,36.3
2023-03-03T04:51:00.570Z,33.9
2023-03-03T04:52:00.953Z,33.9
2023-03-03T04:53:00.813Z,33.9
2023-03-03T04:54:00.693Z,33.9
2023-03-03T04:55:00.562Z,33.9
2023-03-03T04:56:00.540Z,33.8
2023-03-03T04:57:00.540Z,33.8
2023-03-03T04:58:00.558Z,33.8
2023-03-03T04:59:00.565Z,33.8
2023-03-03T05:00:00.602Z,33.8
2023-03-03T05:01:00.598Z,33.2
2023-03-03T05:02:00.573Z,33.2
2023-03-03T05:03:00.593Z,33.2
2023-03-03T05:04:00.552Z,33.2
2023-03-03T05:05:00.698Z,33.2
2023-03-03T05:06:00.575Z,35.7
2023-03-03T05:07:00.639Z,35.7
2023-03-03T05:08:00.536Z,35.7
2023-03-03T05:09:00.633Z,35.7
2023-03-03T05:10:00.601Z,35.7
2023-03-03T05:11:00.804Z,31.6
2023-03-03T05:12:00.553Z,31.6
2023-03-03T05:13:00.521Z,31.6
2023-03-03T05:14:00.745Z,31.6
2023-03-03T05:15:00.522Z,31.6
2023-03-03T05:16:00.592Z,28.6
2023-03-03T05:17:01.169Z,28.6
2023-03-03T05:18:00.538Z,28.6
2023-03-03T05:19:00.540Z,28.6
2023-03-03T05:20:00.649Z,28.6
2023-03-03T05:21:00.527Z,28.3
2023-03-03T05:22:00.759Z,28.3
2023-03-03T05:23:00.575Z,28.3
2023-03-03T05:24:00.585Z,28.3
2023-03-03T05:25:00.512Z,28.3
2023-03-03T05:26:00.536Z,29.7
2023-03-03T05:27:00.667Z,29.7
2023-03-03T05:28:00.838Z,29.7
2023-03-03T05:29:00.550Z,29.7
2023-03-03T05:30:00.698Z,29.7
2023-03-03T05:31:00.775Z,25.3
2023-03-03T05:32:00.576Z,25.3
2023-03-03T05:33:00.579Z,25.3
2023-03-03T05:34:00.576Z,25.3
2023-03-03T05:35:00.998Z,25.3
2023-03-03T05:36:00.562Z,27.0
2023-03-03T05:37:00.520Z,27.0
2023-03-03T05:38:00.650Z,27.0
2023-03-03T05:39:00.502Z,27.0
2023-03-03T05:40:00.579Z,27.0
2023-03-03T05:41:00.527Z,24.5
2023-03-03T05:42:00.737Z,24.5
2023-03-03T05:43:00.700Z,24.5
2023-03-03T05:44:00.509Z,24.5
2023-03-03T05:45:00.530Z,24.5
2023-03-03T05:46:00.582Z,25.7
2023-03-03T05:47:00.541Z,25.7
2023-03-03T05:48:00.519Z,25.7
2023-03-03T05:49:01.144Z,25.7
2023-03-03T05:50:00.555Z,25.7
2023-03-03T05:51:00.612Z,26.1
2023-03-03T05:52:00.829Z,26.1
2023-03-03T05:53:00.512Z,26.1
2023-03-03T05:54:00.510Z,26.1
2023-03-03T05:55:00.532Z,26.1
2023-03-03T05:56:00.592Z,27.2
2023-03-03T05:57:00.708Z,27.2
2023-03-03T05:58:00.558Z,27.2
2023-03-03T05:59:00.528Z,27.2
2023-03-03T06:00:02.776Z,27.2
2023-03-03T06:01:00.623Z,23.6
2023-03-03T06:02:00.587Z,23.6
2023-03-03T06:03:00.747Z,23.6
2023-03-03T06:04:00.536Z,23.6
2023-03-03T06:05:00.532Z,23.6
2023-03-03T06:06:00.567Z,23.0
2023-03-03T06:07:00.937Z,23.0
2023-03-03T06:08:00.522Z,23.0
2023-03-03T06:09:00.646Z,23.0
2023-03-03T06:10:01.124Z,23.0
2023-03-03T06:11:00.785Z,23.0
2023-03-03T06:12:00.542Z,23.0
2023-03-03T06:13:00.533Z,23.0
2023-03-03T06:14:00.536Z,23.0
2023-03-03T06:15:00.567Z,23.0
2023-03-03T06:16:00.685Z,25.0
2023-03-03T06:17:00.540Z,25.0
2023-03-03T06:18:00.757Z,25.0
2023-03-03T06:19:00.532Z,25.0
2023-03-03T06:20:00.552Z,25.0
2023-03-03T06:21:00.560Z,25.9
2023-03-03T06:22:00.833Z,25.9
2023-03-03T06:23:01.325Z,25.9
2023-03-03T06:24:00.536Z,25.9
2023-03-03T06:25:00.544Z,25.9
2023-03-03T06:26:00.605Z,24.1
2023-03-03T06:27:00.657Z,24.1
2023-03-03T06:28:01.679Z,24.1
2023-03-03T06:29:00.763Z,24.1
2023-03-03T06:30:00.818Z,24.1
2023-03-03T06:31:00.640Z,25.7
2023-03-03T06:32:00.713Z,25.7
2023-03-03T06:33:00.572Z,25.7
2023-03-03T06:34:00.524Z,25.7
2023-03-03T06:35:00.570Z,25.7
2023-03-03T06:36:00.597Z,22.2
2023-03-03T06:37:00.527Z,22.2
2023-03-03T06:38:00.858Z,22.2
2023-03-03T06:39:01.025Z,22.2
2023-03-03T06:40:00.551Z,22.2
2023-03-03T06:41:00.521Z,20.7
2023-03-03T06:42:00.536Z,20.7
2023-03-03T06:43:00.507Z,20.7
2023-03-03T06:44:00.582Z,20.7
2023-03-03T06:45:00.570Z,20.7
2023-03-03T06:46:00.571Z,20.7
2023-03-03T06:47:02.503Z,20.7
2023-03-03T06:48:00.591Z,20.7
2023-03-03T06:49:00.538Z,20.7
2023-03-03T06:50:00.602Z,20.7
2023-03-03T06:51:08.347Z,23.3
2023-03-03T06:52:08.583Z,23.3
2023-03-03T06:53:09.779Z,23.3
2023-03-03T06:54:09.942Z,23.3
2023-03-03T06:55:10.855Z,23.3
2023-03-03T06:56:00.917Z,23.4
2023-03-03T06:57:12.651Z,23.4
2023-03-03T06:58:00.820Z,23.4
2023-03-03T06:59:01.689Z,23.4
2023-03-03T07:00:14.169Z,23.4
2023-03-03T07:01:01.295Z,25.5
2023-03-03T07:02:00.949Z,25.5
2023-03-03T07:03:06.708Z,25.5
2023-03-03T07:04:00.688Z,25.5
2023-03-03T07:05:00.562Z,25.5
2023-03-03T07:06:00.981Z,23.6
2023-03-03T07:07:10.490Z,23.6
2023-03-03T07:08:00.742Z,23.6
2023-03-03T07:09:00.550Z,23.6
2023-03-03T07:10:00.539Z,23.6
2023-03-03T07:11:07.994Z,22.3
2023-03-03T07:12:09.121Z,22.3
2023-03-03T07:13:16.449Z,22.3
2023-03-03T07:14:01.055Z,22.3
2023-03-03T07:15:13.856Z,22.3
2023-03-03T07:16:09.973Z,23.1
2023-03-03T07:17:03.919Z,23.1
2023-03-03T07:18:00.615Z,23.1
2023-03-03T07:19:00.613Z,23.1
2023-03-03T07:20:00.698Z,23.1
2023-03-03T07:21:15.499Z,25.9
2023-03-03T07:22:13.403Z,25.9
2023-03-03T07:23:19.406Z,25.9
2023-03-03T07:24:14.567Z,25.9
2023-03-03T07:25:08.420Z,25.9
2023-03-03T07:26:00.522Z,26.7
2023-03-03T07:27:12.613Z,26.7
2023-03-03T07:28:20.433Z,26.7
2023-03-03T07:29:12.957Z,26.7
2023-03-03T07:30:10.476Z,26.7
2023-03-03T07:31:00.584Z,22.5
2023-03-03T07:32:01.549Z,22.5
2023-03-03T07:33:00.622Z,22.5
2023-03-03T07:34:03.145Z,22.5
2023-03-03T07:35:01.437Z,22.5
2023-03-03T07:36:02.424Z,29.9
2023-03-03T07:37:02.810Z,29.9
2023-03-03T07:38:00.675Z,29.9
2023-03-03T07:39:10.393Z,29.9
2023-03-03T07:40:15.739Z,27.0
2023-03-03T07:41:03.812Z,27.0
2023-03-03T07:42:16.502Z,27.0
2023-03-03T07:43:11.803Z,27.0
2023-03-03T07:44:05.546Z,27.0
2023-03-03T07:45:00.953Z,27.0
2023-03-03T07:46:12.304Z,29.6
2023-03-03T07:47:20.479Z,29.6
2023-03-03T07:48:15.562Z,29.6
2023-03-03T07:49:01.621Z,29.6
2023-03-03T07:50:13.003Z,33.3
2023-03-03T07:51:10.577Z,33.3
2023-03-03T07:52:01.103Z,33.3
2023-03-03T07:53:01.112Z,33.3
2023-03-03T07:54:20.494Z,33.3
2023-03-03T07:55:11.646Z,32.2
2023-03-03T07:56:00.847Z,32.2
2023-03-03T07:57:13.815Z,32.2
2023-03-03T07:58:10.490Z,32.2
2023-03-03T07:59:16.484Z,32.2
2023-03-03T08:00:18.013Z,37.2
2023-03-03T08:01:20.441Z,37.2
2023-03-03T08:02:00.632Z,37.2
2023-03-03T08:03:04.634Z,37.2
2023-03-03T08:04:00.630Z,37.2
2023-03-03T08:05:02.212Z,37.2
2023-03-03T08:06:17.281Z,32.7
2023-03-03T08:07:01.365Z,32.7
2023-03-03T08:08:14.236Z,32.7
2023-03-03T08:09:09.182Z,32.7
2023-03-03T08:10:01.577Z,32.7
2023-03-03T08:11:01.818Z,26.9
2023-03-03T08:12:11.544Z,26.9
2023-03-03T08:13:10.498Z,26.9
2023-03-03T08:14:00.688Z,26.9
2023-03-03T08:15:17.816Z,25.6
2023-03-03T08:16:02.064Z,25.6
2023-03-03T08:17:02.059Z,25.6
2023-03-03T08:18:01.138Z,25.6
2023-03-03T08:19:02.591Z,25.6
2023-03-03T08:20:01.133Z,25.6
2023-03-03T08:21:06.163Z,29.5
2023-03-03T08:22:12.778Z,29.5
2023-03-03T08:23:00.532Z,29.5
2023-03-03T08:24:00.565Z,29.5
2023-03-03T08:25:00.990Z,29.5
2023-03-03T08:26:00.551Z,24.9
2023-03-03T08:27:00.518Z,24.9
2023-03-03T08:28:00.536Z,24.9
2023-03-03T08:29:00.541Z,24.9
2023-03-03T08:30:00.570Z,24.9
2023-03-03T08:31:15.355Z,26.4
2023-03-03T08:32:00.659Z,26.4
2023-03-03T08:33:00.612Z,26.4
2023-03-03T08:34:00.533Z,26.4
2023-03-03T08:35:00.527Z,26.4
2023-03-03T08:36:00.881Z,25.6
2023-03-03T08:37:00.518Z,25.6
2023-03-03T08:38:00.701Z,25.6
2023-03-03T08:39:01.024Z,25.6
2023-03-03T08:40:00.732Z,24.3
2023-03-03T08:41:01.625Z,24.3
2023-03-03T08:42:00.580Z,24.3
2023-03-03T08:43:00.717Z,24.3
2023-03-03T08:44:00.526Z,24.3
2023-03-03T08:45:00.560Z,24.0
2023-03-03T08:46:01.981Z,24.0
2023-03-03T08:47:00.525Z,24.0
2023-03-03T08:48:00.604Z,24.0
2023-03-03T08:49:00.723Z,24.0
2023-03-03T08:50:00.549Z,24.2
2023-03-03T08:51:00.575Z,24.2
2023-03-03T08:52:00.577Z,24.2
2023-03-03T08:53:00.577Z,24.2
2023-03-03T08:54:01.655Z,24.2
2023-03-03T08:55:00.566Z,24.6
2023-03-03T08:56:00.545Z,24.6
2023-03-03T08:57:00.528Z,24.6
2023-03-03T08:58:00.579Z,24.6
2023-03-03T08:59:02.829Z,24.6
2023-03-03T09:00:00.949Z,31.1
2023-03-03T09:01:00.557Z,31.1
2023-03-03T09:02:00.585Z,31.1
2023-03-03T09:03:00.719Z,31.1
2023-03-03T09:04:01.228Z,31.1
2023-03-03T09:05:00.565Z,25.2
2023-03-03T09:06:00.580Z,25.2
2023-03-03T09:07:00.663Z,25.2
2023-03-03T09:08:01.392Z,25.2
2023-03-03T09:09:00.688Z,25.2
2023-03-03T09:10:01.104Z,23.1
2023-03-03T09:11:00.571Z,23.1
2023-03-03T09:12:13.594Z,23.1
2023-03-03T09:13:06.083Z,23.1
2023-03-03T09:14:10.516Z,23.1
2023-03-03T09:15:11.551Z,24.0
2023-03-03T09:16:00.608Z,24.0
2023-03-03T09:17:00.551Z,24.0
2023-03-03T09:18:20.470Z,24.0
2023-03-03T09:19:15.511Z,24.0
2023-03-03T09:20:20.495Z,27.7
2023-03-03T09:21:00.737Z,27.7
2023-03-03T09:22:12.661Z,27.7
2023-03-03T09:23:20.476Z,27.7
2023-03-03T09:24:00.565Z,27.7
2023-03-03T09:25:00.908Z,28.2
2023-03-03T09:26:10.505Z,28.2
2023-03-03T09:27:00.542Z,28.2
2023-03-03T09:28:01.085Z,28.2
2023-03-03T09:29:13.746Z,28.2
2023-03-03T09:30:11.289Z,35.0
2023-03-03T09:31:03.628Z,35.0
2023-03-03T09:32:17.876Z,35.0
2023-03-03T09:33:01.703Z,35.0
2023-03-03T09:34:00.648Z,35.0
2023-03-03T09:35:20.570Z,34.4
2023-03-03T09:36:11.347Z,34.4
2023-03-03T09:37:15.086Z,34.4
2023-03-03T09:38:01.521Z,34.4
2023-03-03T09:39:19.487Z,34.4
2023-03-03T09:40:15.129Z,28.2
2023-03-03T09:41:10.489Z,28.2
2023-03-03T09:42:01.510Z,28.2
2023-03-03T09:43:08.510Z,28.2
2023-03-03T09:44:16.316Z,28.2
2023-03-03T09:45:12.213Z,33.7
2023-03-03T09:46:17.906Z,33.7
2023-03-03T09:47:15.049Z,33.7
2023-03-03T09:48:01.531Z,33.7
2023-03-03T09:49:13.781Z,33.7
2023-03-03T09:50:20.448Z,24.5
2023-03-03T09:51:11.731Z,24.5
2023-03-03T09:52:11.303Z,24.5
2023-03-03T09:53:18.368Z,24.5
2023-03-03T09:54:11.484Z,24.5
2023-03-03T09:55:11.286Z,28.5
2023-03-03T09:56:11.484Z,28.5
2023-03-03T09:57:14.887Z,28.5
2023-03-03T09:58:14.517Z,28.5
2023-03-03T09:59:00.521Z,28.5
2023-03-03T10:00:09.357Z,27.6
2023-03-03T10:01:20.453Z,27.6
2023-03-03T10:02:10.505Z,27.6
2023-03-03T10:03:10.569Z,27.6
2023-03-03T10:04:14.819Z,27.6
2023-03-03T10:05:14.014Z,25.6
2023-03-03T10:06:17.883Z,25.6
2023-03-03T10:07:19.630Z,25.6
2023-03-03T10:08:12.142Z,25.6
2023-03-03T10:09:01.522Z,25.6
2023-03-03T10:10:10.500Z,29.1
2023-03-03T10:11:20.457Z,29.1
2023-03-03T10:12:19.238Z,29.1
2023-03-03T10:13:10.510Z,29.1
2023-03-03T10:14:10.546Z,29.1
2023-03-03T10:15:17.925Z,25.8
2023-03-03T10:16:20.454Z,25.8
2023-03-03T10:17:17.891Z,25.8
2023-03-03T10:18:07.410Z,25.8
2023-03-03T10:19:10.478Z,25.8
2023-03-03T10:20:16.243Z,28.1
2023-03-03T10:21:04.949Z,28.1
2023-03-03T10:22:11.494Z,28.1
2023-03-03T10:23:20.445Z,28.1
2023-03-03T10:24:14.525Z,28.1
2023-03-03T10:25:07.031Z,31.9
2023-03-03T10:26:20.432Z,31.9
2023-03-03T10:27:13.900Z,31.9
2023-03-03T10:28:20.446Z,31.9
2023-03-03T10:29:09.842Z,31.9
2023-03-03T10:30:10.488Z,31.1
2023-03-03T10:31:19.470Z,31.1
2023-03-03T10:32:10.670Z,31.1
2023-03-03T10:33:11.446Z,31.1
2023-03-03T10:34:16.612Z,31.1
2023-03-03T10:35:10.551Z,28.5
2023-03-03T10:36:17.813Z,28.5
2023-03-03T10:37:20.449Z,28.5
2023-03-03T10:38:11.486Z,28.5
2023-03-03T10:39:20.424Z,28.5
2023-03-03T10:40:18.090Z,28.3
2023-03-03T10:41:10.479Z,28.3
2023-03-03T10:42:20.471Z,28.3
2023-03-03T10:43:31.134Z,28.3
2023-03-03T10:44:20.420Z,28.3
2023-03-03T10:45:20.440Z,25.2
2023-03-03T10:46:11.533Z,25.2
2023-03-03T10:47:10.468Z,25.2
2023-03-03T10:48:18.982Z,25.2
2023-03-03T10:49:06.051Z,25.2
2023-03-03T10:50:06.542Z,26.0
2023-03-03T10:51:17.985Z,26.0
2023-03-03T10:52:17.454Z,26.0
2023-03-03T10:53:09.989Z,26.0
2023-03-03T10:54:20.474Z,26.0
2023-03-03T10:55:17.663Z,25.9
2023-03-03T10:56:20.003Z,25.9
2023-03-03T10:57:01.907Z,25.9
2023-03-03T10:58:01.555Z,25.9
2023-03-03T10:59:17.534Z,25.9
2023-03-03T11:00:15.468Z,28.8
2023-03-03T11:01:09.035Z,28.8
2023-03-03T11:02:14.045Z,28.8
2023-03-03T11:03:13.734Z,28.8
2023-03-03T11:04:08.130Z,28.8
2023-03-03T11:05:17.269Z,28.0
2023-03-03T11:06:07.844Z,28.0
2023-03-03T11:07:08.484Z,28.0
2023-03-03T11:08:07.026Z,28.0
2023-03-03T11:09:10.473Z,28.0
2023-03-03T11:10:12.917Z,26.6
2023-03-03T11:11:17.712Z,26.6
2023-03-03T11:12:09.039Z,26.6
2023-03-03T11:13:10.479Z,26.6
2023-03-03T11:14:10.458Z,26.6
2023-03-03T11:15:10.454Z,29.0
2023-03-03T11:16:11.778Z,29.0
2023-03-03T11:17:08.796Z,29.0
2023-03-03T11:18:16.257Z,29.0
2023-03-03T11:19:11.793Z,29.0
2023-03-03T11:20:20.259Z,26.7
2023-03-03T11:21:13.720Z,26.7
2023-03-03T11:22:13.874Z,26.7
2023-03-03T11:23:19.143Z,26.7
2023-03-03T11:24:13.414Z,26.7
2023-03-03T11:25:11.578Z,24.3
2023-03-03T11:26:20.433Z,24.3
2023-03-03T11:27:10.478Z,24.3
2023-03-03T11:28:20.466Z,24.3
2023-03-03T11:29:11.491Z,24.3
2023-03-03T11:30:17.739Z,21.5
2023-03-03T11:31:13.666Z,21.5
2023-03-03T11:32:20.134Z,21.5
2023-03-03T11:33:10.454Z,21.5
2023-03-03T11:34:11.507Z,21.5
2023-03-03T11:35:03.772Z,25.5
2023-03-03T11:36:11.512Z,25.5
2023-03-03T11:37:08.847Z,25.5
2023-03-03T11:38:09.589Z,25.5
2023-03-03T11:39:02.147Z,25.5
2023-03-03T11:40:09.836Z,24.8
2023-03-03T11:41:11.139Z,24.8
2023-03-03T11:42:17.589Z,24.8
2023-03-03T11:43:09.150Z,24.8
2023-03-03T11:44:12.844Z,24.8
2023-03-03T11:45:12.775Z,31.9
2023-03-03T11:46:12.618Z,31.9
2023-03-03T11:47:20.460Z,31.9
2023-03-03T11:48:12.630Z,31.9
2023-03-03T11:49:11.505Z,31.9
2023-03-03T11:50:04.031Z,25.4
2023-03-03T11:51:06.096Z,25.4
2023-03-03T11:52:15.456Z,25.4
2023-03-03T11:53:13.764Z,25.4
2023-03-03T11:54:08.198Z,25.4
2023-03-03T11:55:09.904Z,26.3
2023-03-03T11:56:13.453Z,26.3
2023-03-03T11:57:17.333Z,26.3
2023-03-03T11:58:10.347Z,26.3
2023-03-03T11:59:20.453Z,26.3
2023-03-03T12:00:10.580Z,22.1
2023-03-03T12:01:20.475Z,22.1
2023-03-03T12:02:10.639Z,22.1
2023-03-03T12:03:15.346Z,22.1
2023-03-03T12:04:08.042Z,22.1
2023-03-03T12:05:11.614Z,24.1
2023-03-03T12:06:20.440Z,24.1
2023-03-03T12:07:20.223Z,24.1
2023-03-03T12:08:07.253Z,24.1
2023-03-03T12:09:15.982Z,24.1
2023-03-03T12:10:17.809Z,20.9
2023-03-03T12:11:13.770Z,20.9
2023-03-03T12:12:14.783Z,20.9
2023-03-03T12:13:00.553Z,20.9
2023-03-03T12:14:20.440Z,22.4
2023-03-03T12:15:13.305Z,22.4
2023-03-03T12:16:14.886Z,22.4
2023-03-03T12:17:14.978Z,22.4
2023-03-03T12:18:19.494Z,22.4
2023-03-03T12:19:17.688Z,22.4
2023-03-03T12:20:20.430Z,20.1
2023-03-03T12:21:10.483Z,20.1
2023-03-03T12:22:12.842Z,20.1
2023-03-03T12:23:20.464Z,20.1
2023-03-03T12:24:20.495Z,22.0
2023-03-03T12:25:13.760Z,22.0
2023-03-03T12:26:11.405Z,22.0
2023-03-03T12:27:13.396Z,22.0
2023-03-03T12:28:04.266Z,22.0
2023-03-03T12:29:20.463Z,26.8
2023-03-03T12:30:18.639Z,26.8
2023-03-03T12:31:15.653Z,26.8
2023-03-03T12:32:14.583Z,26.8
2023-03-03T12:33:20.435Z,26.8
2023-03-03T12:34:13.534Z,26.8
2023-03-03T12:35:15.124Z,22.1
2023-03-03T12:36:11.486Z,22.1
2023-03-03T12:37:01.545Z,22.1
2023-03-03T12:38:08.495Z,22.1
2023-03-03T12:39:11.042Z,22.1
2023-03-03T12:40:08.359Z,40.6
2023-03-03T12:41:16.441Z,40.6
2023-03-03T12:42:16.810Z,40.6
2023-03-03T12:43:11.513Z,40.6
2023-03-03T12:44:11.369Z,40.6
2023-03-03T12:45:10.504Z,35.3
2023-03-03T12:46:06.147Z,35.3
2023-03-03T12:47:22.961Z,35.3
2023-03-03T12:48:08.569Z,35.3
2023-03-03T12:49:00.553Z,35.3
2023-03-03T12:50:11.525Z,29.3
2023-03-03T12:51:20.444Z,29.3
2023-03-03T12:52:12.723Z,29.3
2023-03-03T12:53:11.551Z,29.3
2023-03-03T12:54:13.248Z,29.3
2023-03-03T12:55:13.579Z,30.7
2023-03-03T12:56:06.634Z,30.7
2023-03-03T12:57:20.453Z,30.7
2023-03-03T12:58:11.505Z,30.7
2023-03-03T12:59:18.470Z,25.2
2023-03-03T13:00:10.479Z,25.2
2023-03-03T13:01:19.768Z,25.2
2023-03-03T13:02:20.470Z,25.2
2023-03-03T13:03:13.776Z,25.2
2023-03-03T13:04:20.584Z,22.7
2023-03-03T13:05:20.444Z,22.7
2023-03-03T13:06:10.474Z,22.7
2023-03-03T13:07:13.608Z,22.7
2023-03-03T13:08:08.080Z,22.7
2023-03-03T13:09:17.772Z,21.6
2023-03-03T13:10:17.319Z,21.6
2023-03-03T13:11:15.267Z,21.6
2023-03-03T13:12:20.446Z,21.6
2023-03-03T13:13:13.326Z,21.6
2023-03-03T13:14:20.444Z,21.8
2023-03-03T13:15:06.988Z,21.8
2023-03-03T13:16:06.428Z,21.8
2023-03-03T13:17:13.277Z,21.8
2023-03-03T13:18:20.444Z,21.8